Regatta — V7DM3 — position and weather

sailwx.info

Track history (hours):
 
Tides and Currents Weather Stations Pressure Air Temp Water Temp Dewpoint Dewpoint Depression Visibility Wind Speed Wind Dir Waves Ship Positions

Regatta

Last reported at 2017-Apr-26 08:00 UTC. Time now 2017-Apr-28 02:27 UTC.
Position N 22°24' W 077°54'.

Length 180 m; draft 5.7 m.

Type: Passenger vessel. MMSI: 538001664.

Wind from 090 at 15 knots

Barometer 1011.1 mb
Air temperature 24.0 ° C
Visibility: greater than 5.4 NM
Dewpoint 22.6 ° C
Water temperature 24.0 ° C

Date/timePositionNaut miles runAvg speedWind from/ knotsBaromVisibWave heightAir tempDewpointWater temp
2017-Apr-26 08:00N 22°24' W 077°54'213 6.8 090 / 151011.1 5.4 24.022.624.0
2017-Apr-25 00:45N 25°24' W 079°60'414.5
2017-Apr-25 00:29N 25°27' W 079°60'714.1
2017-Apr-25 00:01N 25°34' W 080°00'714.1
2017-Apr-24 23:30N 25°41' W 080°01'612.2
2017-Apr-24 23:01N 25°46' W 080°06'4 8.0
2017-Apr-24 22:31N 25°46' W 080°10'1 1.1
2017-Apr-24 22:00N 25°46' W 080°11'0 0.0
2017-Apr-24 21:30N 25°46' W 080°11'0 0.0
2017-Apr-24 21:00N 25°46' W 080°11'0 0.0
2017-Apr-24 20:29N 25°46' W 080°11'0 0.0
2017-Apr-24 19:56N 25°46' W 080°11'0 0.0
2017-Apr-24 19:29N 25°46' W 080°11'0 0.0
2017-Apr-24 18:59N 25°46' W 080°11'0 0.0
2017-Apr-24 18:29N 25°46' W 080°11'0 0.0
2017-Apr-24 17:56N 25°46' W 080°11'0 0.0
2017-Apr-24 17:23N 25°46' W 080°11'0 0.0
2017-Apr-24 16:59N 25°46' W 080°11'0 0.0
2017-Apr-24 16:29N 25°46' W 080°11'0 0.0
2017-Apr-24 15:59N 25°46' W 080°11'0 0.0
2017-Apr-24 15:20N 25°46' W 080°11'0 0.0
2017-Apr-24 14:59N 25°46' W 080°11'0 0.0
2017-Apr-24 14:29N 25°46' W 080°11'0 0.0
2017-Apr-24 13:26N 25°46' W 080°11'0 0.0
2017-Apr-24 12:59N 25°46' W 080°11'0 0.0
2017-Apr-24 12:29N 25°46' W 080°11'0 0.0
2017-Apr-24 11:59N 25°46' W 080°11'0 0.0
2017-Apr-24 11:29N 25°46' W 080°11'0 0.0
2017-Apr-24 10:59N 25°46' W 080°11'0 0.0
2017-Apr-24 10:30N 25°46' W 080°11'2 3.6
2017-Apr-24 10:00N 25°46' W 080°09'510.4
2017-Apr-24 09:30N 25°47' W 080°03'611.7
2017-Apr-24 09:01N 25°50' W 079°58'714.5
2017-Apr-24 08:30N 25°54' W 079°51'815.2
2017-Apr-24 08:00N 25°58' W 079°43'814.9
2017-Apr-24 07:30N 26°01' W 079°36'106822.0
2017-Apr-22 07:00N 30°18' W 060°00'271 5.7 190 / 151019.410.8 19.017.519.0
2017-Apr-20 07:00N 32°12' W 064°48'137 5.3 360 / 61026.8 5.4 19.017.519.0
2017-Apr-19 05:00N 32°06' W 067°30'60219.3 350 / 281023.2 2.2 20.018.520.0
2017-Apr-17 21:42N 32°36' W 079°22'2 9.9
2017-Apr-17 21:30N 32°37' W 079°25'25 1.7
2017-Apr-17 07:00N 32°42' W 079°54'91 3.9 180 / 121027.5 5.4 20.018.520.0
2017-Apr-16 08:00N 31°12' W 079°42'   110 / 251026.1 5.4 22.020.622.0
Track history (hours):
 
Tides and Currents Weather Stations Pressure Air Temp Water Temp Dewpoint Dewpoint Depression Visibility Wind Speed Wind Dir Waves Ship Positions

Regatta

Last reported at 2017-Apr-26 08:00 UTC. Time now 2017-Apr-28 02:27 UTC.
Position N 22°24' W 077°54'.

Length 180 m; draft 5.7 m.

Type: Passenger vessel. MMSI: 538001664.

Wind from 090 at 15 knots

Barometer 1011.1 mb
Air temperature 24.0 ° C
Visibility: greater than 5.4 NM
Dewpoint 22.6 ° C
Water temperature 24.0 ° C

Date/timePositionNaut miles runAvg speedWind from/ knotsBaromVisibWave heightAir tempDewpointWater temp
2017-Apr-26 08:00N 22°24' W 077°54'213 6.8 090 / 151011.1 5.4 24.022.624.0
2017-Apr-25 00:45N 25°24' W 079°60'414.5
2017-Apr-25 00:29N 25°27' W 079°60'714.1
2017-Apr-25 00:01N 25°34' W 080°00'714.1
2017-Apr-24 23:30N 25°41' W 080°01'612.2
2017-Apr-24 23:01N 25°46' W 080°06'4 8.0
2017-Apr-24 22:31N 25°46' W 080°10'1 1.1
2017-Apr-24 22:00N 25°46' W 080°11'0 0.0
2017-Apr-24 21:30N 25°46' W 080°11'0 0.0
2017-Apr-24 21:00N 25°46' W 080°11'0 0.0
2017-Apr-24 20:29N 25°46' W 080°11'0 0.0
2017-Apr-24 19:56N 25°46' W 080°11'0 0.0
2017-Apr-24 19:29N 25°46' W 080°11'0 0.0
2017-Apr-24 18:59N 25°46' W 080°11'0 0.0
2017-Apr-24 18:29N 25°46' W 080°11'0 0.0
2017-Apr-24 17:56N 25°46' W 080°11'0 0.0
2017-Apr-24 17:23N 25°46' W 080°11'0 0.0
2017-Apr-24 16:59N 25°46' W 080°11'0 0.0
2017-Apr-24 16:29N 25°46' W 080°11'0 0.0
2017-Apr-24 15:59N 25°46' W 080°11'0 0.0
2017-Apr-24 15:20N 25°46' W 080°11'0 0.0
2017-Apr-24 14:59N 25°46' W 080°11'0 0.0
2017-Apr-24 14:29N 25°46' W 080°11'0 0.0
2017-Apr-24 13:26N 25°46' W 080°11'0 0.0
2017-Apr-24 12:59N 25°46' W 080°11'0 0.0
2017-Apr-24 12:29N 25°46' W 080°11'0 0.0
2017-Apr-24 11:59N 25°46' W 080°11'0 0.0
2017-Apr-24 11:29N 25°46' W 080°11'0 0.0
2017-Apr-24 10:59N 25°46' W 080°11'0 0.0
2017-Apr-24 10:30N 25°46' W 080°11'2 3.6
2017-Apr-24 10:00N 25°46' W 080°09'510.4
2017-Apr-24 09:30N 25°47' W 080°03'611.7
2017-Apr-24 09:01N 25°50' W 079°58'714.5
2017-Apr-24 08:30N 25°54' W 079°51'815.2
2017-Apr-24 08:00N 25°58' W 079°43'814.9
2017-Apr-24 07:30N 26°01' W 079°36'106822.0
2017-Apr-22 07:00N 30°18' W 060°00'271 5.7 190 / 151019.410.8 19.017.519.0
2017-Apr-20 07:00N 32°12' W 064°48'137 5.3 360 / 61026.8 5.4 19.017.519.0
2017-Apr-19 05:00N 32°06' W 067°30'60219.3 350 / 281023.2 2.2 20.018.520.0
2017-Apr-17 21:42N 32°36' W 079°22'2 9.9
2017-Apr-17 21:30N 32°37' W 079°25'25 1.7
2017-Apr-17 07:00N 32°42' W 079°54'91 3.9 180 / 121027.5 5.4 20.018.520.0
2017-Apr-16 08:00N 31°12' W 079°42'   110 / 251026.1 5.4 22.020.622.0

Dump ship's entire track history